sensor_id;sensor_type;location;lat;lon;timestamp;P1;durP1;ratioP1;P2;durP2;ratioP2
32826;SDS011;51059;42.058;27.986;2022-12-11T00:01:51;28.80;;;15.20;;
32826;SDS011;51059;42.058;27.986;2022-12-11T00:04:16;30.23;;;16.13;;
32826;SDS011;51059;42.058;27.986;2022-12-11T00:06:42;34.67;;;16.37;;
32826;SDS011;51059;42.058;27.986;2022-12-11T00:09:08;29.50;;;15.57;;
32826;SDS011;51059;42.058;27.986;2022-12-11T00:11:33;29.70;;;16.23;;
32826;SDS011;51059;42.058;27.986;2022-12-11T00:13:59;32.00;;;14.93;;
32826;SDS011;51059;42.058;27.986;2022-12-11T00:16:25;32.67;;;15.50;;
32826;SDS011;51059;42.058;27.986;2022-12-11T00:18:50;28.33;;;16.50;;
32826;SDS011;51059;42.058;27.986;2022-12-11T00:21:16;30.30;;;15.50;;
32826;SDS011;51059;42.058;27.986;2022-12-11T00:23:41;29.97;;;15.50;;
32826;SDS011;51059;42.058;27.986;2022-12-11T00:26:08;32.50;;;15.70;;
32826;SDS011;51059;42.058;27.986;2022-12-11T00:28:36;37.93;;;15.80;;
32826;SDS011;51059;42.058;27.986;2022-12-11T00:31:03;29.73;;;15.23;;
32826;SDS011;51059;42.058;27.986;2022-12-11T00:33:29;24.63;;;14.30;;
32826;SDS011;51059;42.058;27.986;2022-12-11T00:35:55;27.93;;;14.90;;
32826;SDS011;51059;42.058;27.986;2022-12-11T00:38:21;29.67;;;14.20;;
32826;SDS011;51059;42.058;27.986;2022-12-11T00:40:46;27.23;;;14.00;;
32826;SDS011;51059;42.058;27.986;2022-12-11T00:43:13;26.80;;;14.87;;
32826;SDS011;51059;42.058;27.986;2022-12-11T00:45:40;31.17;;;15.13;;
32826;SDS011;51059;42.058;27.986;2022-12-11T00:48:08;28.67;;;14.87;;
32826;SDS011;51059;42.058;27.986;2022-12-11T00:50:34;28.70;;;14.37;;
32826;SDS011;51059;42.058;27.986;2022-12-11T00:53:01;35.17;;;14.00;;
32826;SDS011;51059;42.058;27.986;2022-12-11T00:55:28;31.20;;;14.93;;
32826;SDS011;51059;42.058;27.986;2022-12-11T00:57:54;28.57;;;14.53;;
32826;SDS011;51059;42.058;27.986;2022-12-11T01:00:20;24.13;;;14.33;;
32826;SDS011;51059;42.058;27.986;2022-12-11T01:02:47;30.03;;;14.10;;
32826;SDS011;51059;42.058;27.986;2022-12-11T01:05:13;26.13;;;13.07;;
32826;SDS011;51059;42.058;27.986;2022-12-11T01:07:39;30.57;;;13.67;;
32826;SDS011;51059;42.058;27.986;2022-12-11T01:10:04;33.87;;;14.83;;
32826;SDS011;51059;42.058;27.986;2022-12-11T01:12:51;27.23;;;13.50;;
32826;SDS011;51059;42.058;27.986;2022-12-11T01:15:24;25.10;;;14.30;;
32826;SDS011;51059;42.058;27.986;2022-12-11T01:17:52;33.23;;;14.77;;
32826;SDS011;51059;42.058;27.986;2022-12-11T01:20:18;34.20;;;14.87;;
32826;SDS011;51059;42.058;27.986;2022-12-11T01:22:45;25.83;;;14.07;;
32826;SDS011;51059;42.058;27.986;2022-12-11T01:25:11;41.80;;;15.10;;
32826;SDS011;51059;42.058;27.986;2022-12-11T01:27:37;23.57;;;13.50;;
32826;SDS011;51059;42.058;27.986;2022-12-11T01:30:04;31.77;;;14.03;;
32826;SDS011;51059;42.058;27.986;2022-12-11T01:32:32;34.77;;;14.97;;
32826;SDS011;51059;42.058;27.986;2022-12-11T01:34:58;24.80;;;14.33;;
32826;SDS011;51059;42.058;27.986;2022-12-11T01:37:24;32.57;;;14.67;;
32826;SDS011;51059;42.058;27.986;2022-12-11T01:39:50;30.73;;;13.80;;
32826;SDS011;51059;42.058;27.986;2022-12-11T01:42:17;33.90;;;14.13;;
32826;SDS011;51059;42.058;27.986;2022-12-11T01:47:09;35.87;;;14.70;;
32826;SDS011;51059;42.058;27.986;2022-12-11T01:49:34;29.07;;;15.03;;
32826;SDS011;51059;42.058;27.986;2022-12-11T01:52:02;35.50;;;14.93;;
32826;SDS011;51059;42.058;27.986;2022-12-11T01:54:30;39.03;;;14.77;;
32826;SDS011;51059;42.058;27.986;2022-12-11T01:56:57;29.60;;;14.63;;
32826;SDS011;51059;42.058;27.986;2022-12-11T01:59:29;27.37;;;15.47;;
32826;SDS011;51059;42.058;27.986;2022-12-11T02:04:25;30.57;;;14.87;;
32826;SDS011;51059;42.058;27.986;2022-12-11T02:06:52;32.57;;;15.27;;
32826;SDS011;51059;42.058;27.986;2022-12-11T02:09:22;29.57;;;14.33;;
32826;SDS011;51059;42.058;27.986;2022-12-11T02:12:09;32.53;;;15.20;;
32826;SDS011;51059;42.058;27.986;2022-12-11T02:17:21;32.07;;;13.97;;
32826;SDS011;51059;42.058;27.986;2022-12-11T02:20:14;28.47;;;13.83;;
32826;SDS011;51059;42.058;27.986;2022-12-11T02:26:06;33.03;;;14.17;;
32826;SDS011;51059;42.058;27.986;2022-12-11T02:28:54;30.27;;;13.77;;
32826;SDS011;51059;42.058;27.986;2022-12-11T02:31:44;30.50;;;13.43;;
32826;SDS011;51059;42.058;27.986;2022-12-11T02:34:17;31.77;;;13.07;;
32826;SDS011;51059;42.058;27.986;2022-12-11T02:36:50;27.67;;;13.23;;
32826;SDS011;51059;42.058;27.986;2022-12-11T02:39:18;26.80;;;13.20;;
32826;SDS011;51059;42.058;27.986;2022-12-11T02:41:48;25.53;;;11.70;;
32826;SDS011;51059;42.058;27.986;2022-12-11T02:44:15;25.00;;;11.97;;
32826;SDS011;51059;42.058;27.986;2022-12-11T02:46:43;31.90;;;12.00;;
32826;SDS011;51059;42.058;27.986;2022-12-11T02:49:09;31.47;;;12.20;;
32826;SDS011;51059;42.058;27.986;2022-12-11T02:51:38;24.73;;;10.93;;
32826;SDS011;51059;42.058;27.986;2022-12-11T02:54:05;25.43;;;11.77;;
32826;SDS011;51059;42.058;27.986;2022-12-11T02:56:37;28.50;;;11.77;;
32826;SDS011;51059;42.058;27.986;2022-12-11T02:59:07;24.03;;;11.00;;
32826;SDS011;51059;42.058;27.986;2022-12-11T03:01:35;20.37;;;11.33;;
32826;SDS011;51059;42.058;27.986;2022-12-11T03:04:01;28.57;;;11.27;;
32826;SDS011;51059;42.058;27.986;2022-12-11T03:06:28;26.37;;;11.67;;
32826;SDS011;51059;42.058;27.986;2022-12-11T03:08:57;23.77;;;11.40;;
32826;SDS011;51059;42.058;27.986;2022-12-11T03:11:22;24.63;;;11.47;;
32826;SDS011;51059;42.058;27.986;2022-12-11T03:13:48;22.30;;;10.90;;
32826;SDS011;51059;42.058;27.986;2022-12-11T03:16:16;24.57;;;11.83;;
32826;SDS011;51059;42.058;27.986;2022-12-11T03:19:01;34.60;;;11.53;;
32826;SDS011;51059;42.058;27.986;2022-12-11T03:21:42;23.23;;;11.50;;
32826;SDS011;51059;42.058;27.986;2022-12-11T03:24:14;24.93;;;11.60;;
32826;SDS011;51059;42.058;27.986;2022-12-11T03:26:54;25.97;;;10.90;;
32826;SDS011;51059;42.058;27.986;2022-12-11T03:29:29;22.90;;;11.33;;
32826;SDS011;51059;42.058;27.986;2022-12-11T03:32:03;32.87;;;11.77;;
32826;SDS011;51059;42.058;27.986;2022-12-11T03:34:36;23.57;;;10.93;;
32826;SDS011;51059;42.058;27.986;2022-12-11T03:37:02;22.87;;;12.60;;
32826;SDS011;51059;42.058;27.986;2022-12-11T03:39:30;23.07;;;11.30;;
32826;SDS011;51059;42.058;27.986;2022-12-11T03:42:01;22.87;;;11.20;;
32826;SDS011;51059;42.058;27.986;2022-12-11T03:44:30;25.27;;;11.97;;
32826;SDS011;51059;42.058;27.986;2022-12-11T03:46:56;24.33;;;11.27;;
32826;SDS011;51059;42.058;27.986;2022-12-11T03:49:25;22.73;;;12.17;;
32826;SDS011;51059;42.058;27.986;2022-12-11T03:51:53;27.37;;;11.43;;
32826;SDS011;51059;42.058;27.986;2022-12-11T03:54:20;25.27;;;12.33;;
32826;SDS011;51059;42.058;27.986;2022-12-11T03:56:45;24.27;;;11.67;;
32826;SDS011;51059;42.058;27.986;2022-12-11T03:59:12;28.53;;;12.33;;
32826;SDS011;51059;42.058;27.986;2022-12-11T04:01:38;25.80;;;11.93;;
32826;SDS011;51059;42.058;27.986;2022-12-11T04:04:03;23.00;;;12.37;;
32826;SDS011;51059;42.058;27.986;2022-12-11T04:06:29;26.43;;;12.90;;
32826;SDS011;51059;42.058;27.986;2022-12-11T04:08:55;28.13;;;12.47;;
32826;SDS011;51059;42.058;27.986;2022-12-11T04:11:20;20.50;;;12.33;;
32826;SDS011;51059;42.058;27.986;2022-12-11T04:13:58;31.13;;;12.63;;
32826;SDS011;51059;42.058;27.986;2022-12-11T04:16:44;20.90;;;11.97;;
32826;SDS011;51059;42.058;27.986;2022-12-11T04:19:09;29.47;;;13.60;;
32826;SDS011;51059;42.058;27.986;2022-12-11T04:21:53;21.77;;;13.13;;
32826;SDS011;51059;42.058;27.986;2022-12-11T04:24:57;27.37;;;13.37;;
32826;SDS011;51059;42.058;27.986;2022-12-11T04:27:24;25.93;;;13.70;;
32826;SDS011;51059;42.058;27.986;2022-12-11T04:30:09;20.63;;;12.70;;
32826;SDS011;51059;42.058;27.986;2022-12-11T04:32:37;27.93;;;12.47;;
32826;SDS011;51059;42.058;27.986;2022-12-11T04:35:04;28.73;;;12.73;;
32826;SDS011;51059;42.058;27.986;2022-12-11T04:37:31;24.43;;;13.13;;
32826;SDS011;51059;42.058;27.986;2022-12-11T04:39:57;26.93;;;13.27;;
32826;SDS011;51059;42.058;27.986;2022-12-11T04:42:22;28.77;;;13.60;;
32826;SDS011;51059;42.058;27.986;2022-12-11T04:44:48;29.57;;;13.80;;
32826;SDS011;51059;42.058;27.986;2022-12-11T04:47:14;21.30;;;13.63;;
32826;SDS011;51059;42.058;27.986;2022-12-11T04:49:39;28.33;;;13.97;;
32826;SDS011;51059;42.058;27.986;2022-12-11T04:52:05;23.37;;;13.60;;
32826;SDS011;51059;42.058;27.986;2022-12-11T04:54:31;25.63;;;13.87;;
32826;SDS011;51059;42.058;27.986;2022-12-11T04:56:56;22.67;;;13.73;;
32826;SDS011;51059;42.058;27.986;2022-12-11T04:59:22;29.20;;;14.60;;
32826;SDS011;51059;42.058;27.986;2022-12-11T05:01:48;28.57;;;14.37;;
32826;SDS011;51059;42.058;27.986;2022-12-11T05:04:13;24.93;;;13.67;;
32826;SDS011;51059;42.058;27.986;2022-12-11T05:06:39;28.07;;;13.83;;
32826;SDS011;51059;42.058;27.986;2022-12-11T05:09:05;27.87;;;14.07;;
32826;SDS011;51059;42.058;27.986;2022-12-11T05:11:30;27.47;;;14.07;;
32826;SDS011;51059;42.058;27.986;2022-12-11T05:13:57;32.37;;;14.30;;
32826;SDS011;51059;42.058;27.986;2022-12-11T05:16:23;32.60;;;15.70;;
32826;SDS011;51059;42.058;27.986;2022-12-11T05:18:48;29.40;;;14.80;;
32826;SDS011;51059;42.058;27.986;2022-12-11T05:21:14;30.83;;;14.30;;
32826;SDS011;51059;42.058;27.986;2022-12-11T05:23:40;32.43;;;15.17;;
32826;SDS011;51059;42.058;27.986;2022-12-11T05:26:07;34.60;;;14.93;;
32826;SDS011;51059;42.058;27.986;2022-12-11T05:28:36;26.83;;;15.50;;
32826;SDS011;51059;42.058;27.986;2022-12-11T05:31:16;27.17;;;15.37;;
32826;SDS011;51059;42.058;27.986;2022-12-11T05:33:43;30.50;;;15.67;;
32826;SDS011;51059;42.058;27.986;2022-12-11T05:36:14;29.40;;;14.97;;
32826;SDS011;51059;42.058;27.986;2022-12-11T05:38:41;33.20;;;15.57;;
32826;SDS011;51059;42.058;27.986;2022-12-11T05:41:07;28.60;;;14.53;;
32826;SDS011;51059;42.058;27.986;2022-12-11T05:43:33;34.83;;;14.97;;
32826;SDS011;51059;42.058;27.986;2022-12-11T05:46:07;29.40;;;15.27;;
32826;SDS011;51059;42.058;27.986;2022-12-11T05:48:37;33.10;;;15.80;;
32826;SDS011;51059;42.058;27.986;2022-12-11T05:51:04;26.87;;;15.60;;
32826;SDS011;51059;42.058;27.986;2022-12-11T05:53:30;23.70;;;15.17;;
32826;SDS011;51059;42.058;27.986;2022-12-11T05:56:00;26.20;;;15.83;;
32826;SDS011;51059;42.058;27.986;2022-12-11T05:58:27;29.00;;;15.50;;
32826;SDS011;51059;42.058;27.986;2022-12-11T06:00:52;25.47;;;14.73;;
32826;SDS011;51059;42.058;27.986;2022-12-11T06:03:18;27.53;;;15.80;;
32826;SDS011;51059;42.058;27.986;2022-12-11T06:05:43;36.60;;;14.97;;
32826;SDS011;51059;42.058;27.986;2022-12-11T06:08:09;31.67;;;15.43;;
32826;SDS011;51059;42.058;27.986;2022-12-11T06:10:35;29.53;;;15.10;;
32826;SDS011;51059;42.058;27.986;2022-12-11T06:13:00;31.60;;;16.13;;
32826;SDS011;51059;42.058;27.986;2022-12-11T06:15:29;28.70;;;16.27;;
32826;SDS011;51059;42.058;27.986;2022-12-11T06:17:54;35.07;;;15.10;;
32826;SDS011;51059;42.058;27.986;2022-12-11T06:20:20;28.10;;;15.23;;
32826;SDS011;51059;42.058;27.986;2022-12-11T06:22:45;33.63;;;14.93;;
32826;SDS011;51059;42.058;27.986;2022-12-11T06:25:11;31.13;;;15.50;;
32826;SDS011;51059;42.058;27.986;2022-12-11T06:27:37;32.97;;;15.13;;
32826;SDS011;51059;42.058;27.986;2022-12-11T06:30:02;33.83;;;15.30;;
32826;SDS011;51059;42.058;27.986;2022-12-11T06:32:28;35.97;;;15.53;;
32826;SDS011;51059;42.058;27.986;2022-12-11T06:34:53;37.67;;;14.70;;
32826;SDS011;51059;42.058;27.986;2022-12-11T06:37:19;27.33;;;14.10;;
32826;SDS011;51059;42.058;27.986;2022-12-11T06:39:45;26.80;;;14.57;;
32826;SDS011;51059;42.058;27.986;2022-12-11T06:42:10;30.50;;;14.73;;
32826;SDS011;51059;42.058;27.986;2022-12-11T06:44:37;31.47;;;15.30;;
32826;SDS011;51059;42.058;27.986;2022-12-11T06:47:03;31.60;;;15.30;;
32826;SDS011;51059;42.058;27.986;2022-12-11T06:49:28;23.50;;;15.17;;
32826;SDS011;51059;42.058;27.986;2022-12-11T06:51:54;30.07;;;15.03;;
32826;SDS011;51059;42.058;27.986;2022-12-11T06:54:20;31.80;;;15.73;;
32826;SDS011;51059;42.058;27.986;2022-12-11T06:56:50;35.23;;;15.70;;
32826;SDS011;51059;42.058;27.986;2022-12-11T06:59:15;31.63;;;15.37;;
32826;SDS011;51059;42.058;27.986;2022-12-11T07:01:41;26.77;;;14.37;;
32826;SDS011;51059;42.058;27.986;2022-12-11T07:04:07;33.67;;;14.77;;
32826;SDS011;51059;42.058;27.986;2022-12-11T07:06:33;34.00;;;15.50;;
32826;SDS011;51059;42.058;27.986;2022-12-11T07:08:58;31.90;;;14.40;;
32826;SDS011;51059;42.058;27.986;2022-12-11T07:11:24;34.13;;;14.90;;
32826;SDS011;51059;42.058;27.986;2022-12-11T07:13:50;33.47;;;15.20;;
32826;SDS011;51059;42.058;27.986;2022-12-11T07:16:16;33.20;;;14.90;;
32826;SDS011;51059;42.058;27.986;2022-12-11T07:18:44;31.10;;;14.20;;
32826;SDS011;51059;42.058;27.986;2022-12-11T07:21:12;27.67;;;14.63;;
32826;SDS011;51059;42.058;27.986;2022-12-11T07:23:38;26.43;;;13.93;;
32826;SDS011;51059;42.058;27.986;2022-12-11T07:26:04;30.87;;;13.70;;
32826;SDS011;51059;42.058;27.986;2022-12-11T07:28:38;29.47;;;14.17;;
32826;SDS011;51059;42.058;27.986;2022-12-11T07:31:07;29.27;;;14.07;;
32826;SDS011;51059;42.058;27.986;2022-12-11T07:33:34;26.37;;;13.17;;
32826;SDS011;51059;42.058;27.986;2022-12-11T07:36:01;27.03;;;13.83;;
32826;SDS011;51059;42.058;27.986;2022-12-11T07:38:28;32.77;;;14.33;;
32826;SDS011;51059;42.058;27.986;2022-12-11T07:40:54;33.33;;;14.87;;
32826;SDS011;51059;42.058;27.986;2022-12-11T07:43:19;26.87;;;13.77;;
32826;SDS011;51059;42.058;27.986;2022-12-11T07:45:45;30.43;;;14.83;;
32826;SDS011;51059;42.058;27.986;2022-12-11T07:48:10;30.00;;;14.63;;
32826;SDS011;51059;42.058;27.986;2022-12-11T07:50:37;33.70;;;13.40;;
32826;SDS011;51059;42.058;27.986;2022-12-11T07:53:02;30.47;;;13.57;;
32826;SDS011;51059;42.058;27.986;2022-12-11T07:55:28;29.53;;;13.33;;
32826;SDS011;51059;42.058;27.986;2022-12-11T07:57:54;27.80;;;13.60;;
32826;SDS011;51059;42.058;27.986;2022-12-11T08:00:19;26.50;;;14.20;;
32826;SDS011;51059;42.058;27.986;2022-12-11T08:02:45;31.27;;;14.57;;
32826;SDS011;51059;42.058;27.986;2022-12-11T08:05:10;27.23;;;13.90;;
32826;SDS011;51059;42.058;27.986;2022-12-11T08:07:37;32.07;;;14.73;;
32826;SDS011;51059;42.058;27.986;2022-12-11T08:10:03;28.70;;;14.33;;
32826;SDS011;51059;42.058;27.986;2022-12-11T08:12:29;27.23;;;15.47;;
32826;SDS011;51059;42.058;27.986;2022-12-11T08:14:54;28.60;;;14.67;;
32826;SDS011;51059;42.058;27.986;2022-12-11T08:17:20;28.90;;;15.03;;
32826;SDS011;51059;42.058;27.986;2022-12-11T08:19:46;33.80;;;15.87;;
32826;SDS011;51059;42.058;27.986;2022-12-11T08:22:11;28.87;;;15.67;;
32826;SDS011;51059;42.058;27.986;2022-12-11T08:24:38;29.27;;;16.67;;
32826;SDS011;51059;42.058;27.986;2022-12-11T08:27:04;29.00;;;16.53;;
32826;SDS011;51059;42.058;27.986;2022-12-11T08:29:30;27.57;;;16.90;;
32826;SDS011;51059;42.058;27.986;2022-12-11T08:31:56;34.50;;;16.60;;
32826;SDS011;51059;42.058;27.986;2022-12-11T08:34:22;31.63;;;17.83;;
32826;SDS011;51059;42.058;27.986;2022-12-11T08:36:47;37.03;;;17.17;;
32826;SDS011;51059;42.058;27.986;2022-12-11T08:39:13;33.20;;;17.50;;
32826;SDS011;51059;42.058;27.986;2022-12-11T08:41:38;32.67;;;17.00;;
32826;SDS011;51059;42.058;27.986;2022-12-11T08:44:08;31.00;;;17.83;;
32826;SDS011;51059;42.058;27.986;2022-12-11T08:46:36;38.20;;;18.10;;
32826;SDS011;51059;42.058;27.986;2022-12-11T08:49:02;29.50;;;16.27;;
32826;SDS011;51059;42.058;27.986;2022-12-11T08:51:28;34.90;;;17.67;;
32826;SDS011;51059;42.058;27.986;2022-12-11T08:53:55;36.73;;;17.87;;
32826;SDS011;51059;42.058;27.986;2022-12-11T08:56:21;33.33;;;18.43;;
32826;SDS011;51059;42.058;27.986;2022-12-11T08:58:48;34.17;;;17.90;;
32826;SDS011;51059;42.058;27.986;2022-12-11T09:01:14;36.97;;;18.57;;
32826;SDS011;51059;42.058;27.986;2022-12-11T09:03:42;36.23;;;18.63;;
32826;SDS011;51059;42.058;27.986;2022-12-11T09:06:08;30.50;;;17.93;;
32826;SDS011;51059;42.058;27.986;2022-12-11T09:08:36;38.30;;;18.23;;
32826;SDS011;51059;42.058;27.986;2022-12-11T09:11:03;35.73;;;18.27;;
32826;SDS011;51059;42.058;27.986;2022-12-11T09:13:32;33.27;;;17.37;;
32826;SDS011;51059;42.058;27.986;2022-12-11T09:15:58;31.57;;;17.90;;
32826;SDS011;51059;42.058;27.986;2022-12-11T09:18:24;32.00;;;17.27;;
32826;SDS011;51059;42.058;27.986;2022-12-11T09:21:06;39.63;;;17.53;;
32826;SDS011;51059;42.058;27.986;2022-12-11T09:23:33;34.23;;;17.30;;
32826;SDS011;51059;42.058;27.986;2022-12-11T09:25:59;35.70;;;16.50;;
32826;SDS011;51059;42.058;27.986;2022-12-11T09:28:24;33.53;;;16.37;;
32826;SDS011;51059;42.058;27.986;2022-12-11T09:30:50;37.00;;;16.30;;
32826;SDS011;51059;42.058;27.986;2022-12-11T09:33:16;33.13;;;16.33;;
32826;SDS011;51059;42.058;27.986;2022-12-11T09:35:42;39.13;;;16.13;;
32826;SDS011;51059;42.058;27.986;2022-12-11T09:38:08;35.67;;;14.87;;
32826;SDS011;51059;42.058;27.986;2022-12-11T09:40:38;33.50;;;15.40;;
32826;SDS011;51059;42.058;27.986;2022-12-11T09:45:39;34.87;;;15.30;;
32826;SDS011;51059;42.058;27.986;2022-12-11T09:48:04;33.77;;;15.73;;
32826;SDS011;51059;42.058;27.986;2022-12-11T09:50:31;36.07;;;16.00;;
32826;SDS011;51059;42.058;27.986;2022-12-11T09:53:01;36.57;;;16.00;;
32826;SDS011;51059;42.058;27.986;2022-12-11T10:17:11;45.60;;;13.30;;
32826;SDS011;51059;42.058;27.986;2022-12-11T10:19:40;40.20;;;13.43;;
32826;SDS011;51059;42.058;27.986;2022-12-11T10:22:10;39.10;;;13.03;;
32826;SDS011;51059;42.058;27.986;2022-12-11T10:24:43;39.20;;;13.53;;
32826;SDS011;51059;42.058;27.986;2022-12-11T10:27:18;40.27;;;13.73;;
32826;SDS011;51059;42.058;27.986;2022-12-11T10:29:45;30.00;;;12.70;;
32826;SDS011;51059;42.058;27.986;2022-12-11T10:32:22;39.30;;;13.87;;
32826;SDS011;51059;42.058;27.986;2022-12-11T10:35:00;40.37;;;13.13;;
32826;SDS011;51059;42.058;27.986;2022-12-11T10:37:27;36.80;;;12.37;;
32826;SDS011;51059;42.058;27.986;2022-12-11T10:39:52;38.27;;;12.70;;
32826;SDS011;51059;42.058;27.986;2022-12-11T10:42:19;37.13;;;12.87;;
32826;SDS011;51059;42.058;27.986;2022-12-11T10:44:56;42.33;;;13.30;;
32826;SDS011;51059;42.058;27.986;2022-12-11T10:47:25;39.30;;;12.90;;
32826;SDS011;51059;42.058;27.986;2022-12-11T10:49:53;42.83;;;12.00;;
32826;SDS011;51059;42.058;27.986;2022-12-11T10:52:26;39.20;;;11.90;;
32826;SDS011;51059;42.058;27.986;2022-12-11T10:55:01;36.83;;;11.43;;
32826;SDS011;51059;42.058;27.986;2022-12-11T10:57:31;38.07;;;10.70;;
32826;SDS011;51059;42.058;27.986;2022-12-11T10:59:59;36.43;;;12.10;;
32826;SDS011;51059;42.058;27.986;2022-12-11T11:04:50;44.70;;;12.40;;
32826;SDS011;51059;42.058;27.986;2022-12-11T11:09:47;30.73;;;11.30;;
32826;SDS011;51059;42.058;27.986;2022-12-11T11:12:24;41.90;;;11.03;;
32826;SDS011;51059;42.058;27.986;2022-12-11T11:14:57;36.70;;;10.37;;
32826;SDS011;51059;42.058;27.986;2022-12-11T11:17:24;35.87;;;10.30;;
32826;SDS011;51059;42.058;27.986;2022-12-11T11:19:50;32.80;;;9.63;;
32826;SDS011;51059;42.058;27.986;2022-12-11T11:22:16;29.63;;;9.33;;
32826;SDS011;51059;42.058;27.986;2022-12-11T11:27:38;31.83;;;9.17;;
32826;SDS011;51059;42.058;27.986;2022-12-11T11:30:24;34.03;;;9.57;;
32826;SDS011;51059;42.058;27.986;2022-12-11T11:32:56;29.10;;;7.93;;
32826;SDS011;51059;42.058;27.986;2022-12-11T11:35:27;24.73;;;7.70;;
32826;SDS011;51059;42.058;27.986;2022-12-11T11:37:58;31.07;;;7.53;;
32826;SDS011;51059;42.058;27.986;2022-12-11T11:40:33;31.10;;;6.27;;
32826;SDS011;51059;42.058;27.986;2022-12-11T11:43:16;24.60;;;6.50;;
32826;SDS011;51059;42.058;27.986;2022-12-11T11:45:54;25.47;;;5.27;;
32826;SDS011;51059;42.058;27.986;2022-12-11T11:53:53;19.93;;;4.20;;
32826;SDS011;51059;42.058;27.986;2022-12-11T11:56:22;22.60;;;4.40;;
32826;SDS011;51059;42.058;27.986;2022-12-11T12:01:31;16.27;;;4.37;;
32826;SDS011;51059;42.058;27.986;2022-12-11T12:03:57;23.27;;;4.37;;
32826;SDS011;51059;42.058;27.986;2022-12-11T12:11:52;21.60;;;4.27;;
32826;SDS011;51059;42.058;27.986;2022-12-11T12:14:29;22.07;;;4.20;;
32826;SDS011;51059;42.058;27.986;2022-12-11T12:19:47;13.57;;;3.63;;
32826;SDS011;51059;42.058;27.986;2022-12-11T12:25:34;16.00;;;3.70;;
32826;SDS011;51059;42.058;27.986;2022-12-11T12:39:48;18.03;;;3.83;;
32826;SDS011;51059;42.058;27.986;2022-12-11T12:44:29;16.90;;;3.73;;
32826;SDS011;51059;42.058;27.986;2022-12-11T12:47:02;19.53;;;3.50;;
32826;SDS011;51059;42.058;27.986;2022-12-11T12:52:00;19.37;;;3.70;;
32826;SDS011;51059;42.058;27.986;2022-12-11T12:54:26;13.80;;;3.37;;
32826;SDS011;51059;42.058;27.986;2022-12-11T12:56:52;10.60;;;3.30;;
32826;SDS011;51059;42.058;27.986;2022-12-11T12:59:25;15.73;;;3.93;;
32826;SDS011;51059;42.058;27.986;2022-12-11T13:01:53;16.17;;;3.30;;
32826;SDS011;51059;42.058;27.986;2022-12-11T13:04:40;15.13;;;3.97;;
32826;SDS011;51059;42.058;27.986;2022-12-11T13:07:15;14.47;;;3.30;;
32826;SDS011;51059;42.058;27.986;2022-12-11T13:10:00;12.43;;;3.00;;
32826;SDS011;51059;42.058;27.986;2022-12-11T13:12:40;12.67;;;3.00;;
32826;SDS011;51059;42.058;27.986;2022-12-11T13:20:59;9.83;;;2.60;;
32826;SDS011;51059;42.058;27.986;2022-12-11T13:23:27;11.90;;;2.73;;
32826;SDS011;51059;42.058;27.986;2022-12-11T13:25:57;9.27;;;2.70;;
32826;SDS011;51059;42.058;27.986;2022-12-11T13:28:26;10.37;;;2.47;;
32826;SDS011;51059;42.058;27.986;2022-12-11T13:30:57;11.90;;;2.07;;
32826;SDS011;51059;42.058;27.986;2022-12-11T13:33:53;10.23;;;1.77;;
32826;SDS011;51059;42.058;27.986;2022-12-11T13:38:47;7.63;;;1.83;;
32826;SDS011;51059;42.058;27.986;2022-12-11T13:41:16;12.43;;;1.60;;
32826;SDS011;51059;42.058;27.986;2022-12-11T13:43:42;11.13;;;2.00;;
32826;SDS011;51059;42.058;27.986;2022-12-11T13:46:10;5.13;;;1.40;;
32826;SDS011;51059;42.058;27.986;2022-12-11T13:48:38;8.90;;;1.23;;
32826;SDS011;51059;42.058;27.986;2022-12-11T13:51:12;6.37;;;1.10;;
32826;SDS011;51059;42.058;27.986;2022-12-11T13:53:41;3.93;;;1.20;;
32826;SDS011;51059;42.058;27.986;2022-12-11T13:56:12;6.27;;;1.17;;
32826;SDS011;51059;42.058;27.986;2022-12-11T13:58:46;7.53;;;1.00;;
32826;SDS011;51059;42.058;27.986;2022-12-11T14:01:22;6.83;;;1.30;;
32826;SDS011;51059;42.058;27.986;2022-12-11T14:04:06;5.83;;;1.10;;
32826;SDS011;51059;42.058;27.986;2022-12-11T14:06:35;6.23;;;1.10;;
32826;SDS011;51059;42.058;27.986;2022-12-11T14:09:02;5.50;;;1.13;;
32826;SDS011;51059;42.058;27.986;2022-12-11T14:11:35;7.23;;;1.37;;
32826;SDS011;51059;42.058;27.986;2022-12-11T14:14:03;7.90;;;1.40;;
32826;SDS011;51059;42.058;27.986;2022-12-11T14:16:31;4.17;;;1.10;;
32826;SDS011;51059;42.058;27.986;2022-12-11T14:19:04;4.80;;;1.23;;
32826;SDS011;51059;42.058;27.986;2022-12-11T14:21:31;8.97;;;1.53;;
32826;SDS011;51059;42.058;27.986;2022-12-11T14:23:58;4.37;;;1.40;;
32826;SDS011;51059;42.058;27.986;2022-12-11T14:26:29;7.93;;;1.20;;
32826;SDS011;51059;42.058;27.986;2022-12-11T14:28:57;8.80;;;1.43;;
32826;SDS011;51059;42.058;27.986;2022-12-11T14:31:27;3.73;;;1.50;;
32826;SDS011;51059;42.058;27.986;2022-12-11T14:34:03;4.40;;;1.27;;
32826;SDS011;51059;42.058;27.986;2022-12-11T14:36:32;4.53;;;1.50;;
32826;SDS011;51059;42.058;27.986;2022-12-11T14:39:03;7.90;;;1.40;;
32826;SDS011;51059;42.058;27.986;2022-12-11T14:41:59;6.17;;;1.50;;
32826;SDS011;51059;42.058;27.986;2022-12-11T14:44:34;3.93;;;1.47;;
32826;SDS011;51059;42.058;27.986;2022-12-11T14:47:26;5.07;;;1.40;;
32826;SDS011;51059;42.058;27.986;2022-12-11T14:50:02;5.97;;;1.73;;
32826;SDS011;51059;42.058;27.986;2022-12-11T14:52:30;11.20;;;2.17;;
32826;SDS011;51059;42.058;27.986;2022-12-11T14:55:00;10.50;;;2.63;;
32826;SDS011;51059;42.058;27.986;2022-12-11T14:57:29;9.00;;;2.30;;
32826;SDS011;51059;42.058;27.986;2022-12-11T14:59:57;10.37;;;2.73;;
32826;SDS011;51059;42.058;27.986;2022-12-11T15:05:00;12.90;;;3.03;;
32826;SDS011;51059;42.058;27.986;2022-12-11T15:07:30;15.37;;;3.40;;
32826;SDS011;51059;42.058;27.986;2022-12-11T15:09:56;13.57;;;3.60;;
32826;SDS011;51059;42.058;27.986;2022-12-11T15:12:21;8.63;;;3.37;;
32826;SDS011;51059;42.058;27.986;2022-12-11T15:14:49;15.63;;;3.90;;
32826;SDS011;51059;42.058;27.986;2022-12-11T15:17:17;12.97;;;3.30;;
32826;SDS011;51059;42.058;27.986;2022-12-11T15:19:53;10.10;;;3.20;;
32826;SDS011;51059;42.058;27.986;2022-12-11T15:22:21;9.00;;;3.10;;
32826;SDS011;51059;42.058;27.986;2022-12-11T15:24:51;10.47;;;2.73;;
32826;SDS011;51059;42.058;27.986;2022-12-11T15:29:54;11.20;;;2.73;;
32826;SDS011;51059;42.058;27.986;2022-12-11T15:32:21;9.20;;;2.80;;
32826;SDS011;51059;42.058;27.986;2022-12-11T15:37:16;13.17;;;3.10;;
32826;SDS011;51059;42.058;27.986;2022-12-11T15:39:59;8.87;;;2.37;;
32826;SDS011;51059;42.058;27.986;2022-12-11T15:42:29;7.70;;;2.13;;
32826;SDS011;51059;42.058;27.986;2022-12-11T15:44:56;9.33;;;2.80;;
32826;SDS011;51059;42.058;27.986;2022-12-11T15:47:24;14.17;;;2.50;;
32826;SDS011;51059;42.058;27.986;2022-12-11T15:49:53;11.77;;;3.03;;
32826;SDS011;51059;42.058;27.986;2022-12-11T15:52:20;9.17;;;2.50;;
32826;SDS011;51059;42.058;27.986;2022-12-11T15:54:45;12.57;;;2.43;;
32826;SDS011;51059;42.058;27.986;2022-12-11T15:57:12;11.13;;;2.53;;
32826;SDS011;51059;42.058;27.986;2022-12-11T15:59:40;11.87;;;2.97;;